createdAt,value
2018-12-10T00:00:28.635Z,2.67
2018-12-10T00:01:32.066Z,2.05
2018-12-10T00:02:35.465Z,2.20
2018-12-10T00:03:38.871Z,2.80
2018-12-10T00:04:42.537Z,2.33
2018-12-10T00:05:45.930Z,2.87
2018-12-10T00:06:49.322Z,2.75
2018-12-10T00:07:52.710Z,2.42
2018-12-10T00:08:56.075Z,2.40
2018-12-10T00:09:59.493Z,2.30
2018-12-10T00:11:02.920Z,2.95
2018-12-10T00:12:06.343Z,2.60
2018-12-10T00:13:09.722Z,2.33
2018-12-10T00:14:13.111Z,3.15
2018-12-10T00:15:16.490Z,2.90
2018-12-10T00:16:22.929Z,2.33
2018-12-10T00:17:26.443Z,2.65
2018-12-10T00:18:30.076Z,2.20
2018-12-10T00:19:33.466Z,2.80
2018-12-10T00:20:37.131Z,2.98
2018-12-10T00:21:40.586Z,2.72
2018-12-10T00:22:43.979Z,2.80
2018-12-10T00:23:47.362Z,2.47
2018-12-10T00:24:50.760Z,2.52
2018-12-10T00:25:54.170Z,2.45
2018-12-10T00:26:57.550Z,2.50
2018-12-10T00:28:00.938Z,2.40
2018-12-10T00:29:04.325Z,2.80
2018-12-10T00:30:08.458Z,2.47
2018-12-10T00:31:11.855Z,2.87
2018-12-10T00:32:15.264Z,2.33
2018-12-10T00:33:18.712Z,2.75
2018-12-10T00:34:22.083Z,1.90
2018-12-10T00:35:25.481Z,2.20
2018-12-10T00:36:29.217Z,1.90
2018-12-10T00:37:32.600Z,2.60
2018-12-10T00:38:35.987Z,2.17
2018-12-10T00:39:39.357Z,1.98
2018-12-10T00:40:42.767Z,2.85
2018-12-10T00:41:46.170Z,2.25
2018-12-10T00:42:49.556Z,1.77
2018-12-10T00:43:52.938Z,2.30
2018-12-10T00:44:56.305Z,2.35
2018-12-10T00:45:59.688Z,2.08
2018-12-10T00:47:03.220Z,2.60
2018-12-10T00:48:06.673Z,2.62
2018-12-10T00:49:10.039Z,2.08
2018-12-10T00:50:13.429Z,2.95
2018-12-10T00:51:16.834Z,2.00
2018-12-10T00:52:20.253Z,2.47
2018-12-10T00:53:23.651Z,2.65
2018-12-10T00:54:27.041Z,2.05
2018-12-10T00:55:30.439Z,2.45
2018-12-10T00:56:33.827Z,2.40
2018-12-10T00:57:37.227Z,1.98
2018-12-10T00:58:40.625Z,2.22
2018-12-10T00:59:44.006Z,2.70
2018-12-10T01:00:47.386Z,2.45
2018-12-10T01:01:50.797Z,2.75
2018-12-10T01:02:54.198Z,1.90
2018-12-10T01:03:57.602Z,2.98
2018-12-10T01:05:00.970Z,2.33
2018-12-10T01:06:04.348Z,2.05
2018-12-10T01:07:07.757Z,2.37
2018-12-10T01:08:11.170Z,2.00
2018-12-10T01:09:14.543Z,3.10
2018-12-10T01:10:17.954Z,2.67
2018-12-10T01:11:21.326Z,2.47
2018-12-10T01:12:24.723Z,3.40
2018-12-10T01:13:28.110Z,2.50
2018-12-10T01:14:31.503Z,1.85
2018-12-10T01:15:34.881Z,2.42
2018-12-10T01:16:38.330Z,2.75
2018-12-10T01:17:41.730Z,2.67
2018-12-10T01:18:45.097Z,2.75
2018-12-10T01:19:48.492Z,2.17
2018-12-10T01:20:51.880Z,2.37
2018-12-10T01:21:55.299Z,2.75
2018-12-10T01:22:58.678Z,2.58
2018-12-10T01:24:02.068Z,3.12
2018-12-10T01:25:05.443Z,2.77
2018-12-10T01:26:08.847Z,2.37
2018-12-10T01:27:12.239Z,2.40
2018-12-10T01:28:15.658Z,3.30
2018-12-10T01:29:19.043Z,2.67
2018-12-10T01:30:22.431Z,2.80
2018-12-10T01:31:25.819Z,2.35
2018-12-10T01:32:29.213Z,2.10
2018-12-10T01:33:32.593Z,2.55
2018-12-10T01:34:35.969Z,2.40
2018-12-10T01:35:39.375Z,1.92
2018-12-10T01:36:42.854Z,2.12
2018-12-10T01:37:46.281Z,1.98
2018-12-10T01:38:49.717Z,2.47
2018-12-10T01:39:53.106Z,2.40
2018-12-10T01:40:56.498Z,2.25
2018-12-10T01:41:59.882Z,2.62
2018-12-10T01:43:03.291Z,2.25
2018-12-10T01:44:06.684Z,1.75
2018-12-10T01:45:10.285Z,2.45
2018-12-10T01:46:13.755Z,2.42
2018-12-10T01:47:17.770Z,1.98
2018-12-10T01:48:21.448Z,2.62
2018-12-10T01:49:25.099Z,1.70
2018-12-10T01:50:29.081Z,2.10
2018-12-10T01:51:33.005Z,2.10
2018-12-10T01:52:37.060Z,1.98
2018-12-10T01:53:41.100Z,2.90
2018-12-10T01:54:44.858Z,2.08
2018-12-10T01:55:48.772Z,2.35
2018-12-10T01:56:52.158Z,2.22
2018-12-10T01:57:55.551Z,2.65
2018-12-10T01:58:58.962Z,2.52
2018-12-10T02:00:02.346Z,2.02
2018-12-10T02:01:05.735Z,2.45
2018-12-10T02:02:09.116Z,1.77
2018-12-10T02:03:12.513Z,2.20
2018-12-10T02:04:15.908Z,1.75
2018-12-10T02:05:19.307Z,2.08
2018-12-10T02:06:22.786Z,2.45
2018-12-10T02:07:26.150Z,2.52
2018-12-10T02:08:29.606Z,2.25
2018-12-10T02:09:33.014Z,2.10
2018-12-10T02:10:36.395Z,1.82
2018-12-10T02:11:39.749Z,1.65
2018-12-10T02:12:43.155Z,1.72
2018-12-10T02:13:46.570Z,2.12
2018-12-10T02:14:49.974Z,2.40
2018-12-10T02:15:53.345Z,1.87
2018-12-10T02:16:56.737Z,2.12
2018-12-10T02:18:00.115Z,1.70
2018-12-10T02:19:03.518Z,1.30
2018-12-10T02:20:07.044Z,1.52
2018-12-10T02:21:10.406Z,1.60
2018-12-10T02:22:13.793Z,1.57
2018-12-10T02:23:17.180Z,1.67
2018-12-10T02:24:20.581Z,1.65
2018-12-10T02:25:24.022Z,2.27
2018-12-10T02:26:27.414Z,2.05
2018-12-10T02:27:30.805Z,2.15
2018-12-10T02:28:39.710Z,1.95
2018-12-10T02:29:43.107Z,1.80
2018-12-10T02:30:46.525Z,2.22
2018-12-10T02:31:50.453Z,2.25
2018-12-10T02:32:53.831Z,1.87
2018-12-10T02:33:57.235Z,2.08
2018-12-10T02:35:00.599Z,2.00
2018-12-10T02:36:03.996Z,1.95
2018-12-10T02:37:07.385Z,2.02
2018-12-10T02:38:10.769Z,2.30
2018-12-10T02:39:14.154Z,2.58
2018-12-10T02:40:17.608Z,2.50
2018-12-10T02:41:20.988Z,2.25
2018-12-10T02:42:24.370Z,1.40
2018-12-10T02:43:27.759Z,2.65
2018-12-10T02:44:31.157Z,2.55
2018-12-10T02:45:34.538Z,2.55
2018-12-10T02:46:37.939Z,2.37
2018-12-10T02:47:41.372Z,2.40
2018-12-10T02:48:44.867Z,2.15
2018-12-10T02:49:48.240Z,2.27
2018-12-10T02:50:51.613Z,2.10
2018-12-10T02:51:55.033Z,2.52
2018-12-10T02:52:58.668Z,2.15
2018-12-10T02:54:02.113Z,2.52
2018-12-10T02:55:05.987Z,1.72
2018-12-10T02:56:09.388Z,2.33
2018-12-10T02:57:12.758Z,1.75
2018-12-10T02:58:16.143Z,2.15
2018-12-10T02:59:19.563Z,2.98
2018-12-10T03:00:22.979Z,2.20
2018-12-10T03:01:26.364Z,2.35
2018-12-10T03:02:29.758Z,2.20
2018-12-10T03:03:33.201Z,2.20
2018-12-10T03:04:36.629Z,1.85
2018-12-10T03:05:40.035Z,1.72
2018-12-10T03:06:43.407Z,2.02
2018-12-10T03:07:46.809Z,1.87
2018-12-10T03:08:50.195Z,2.25
2018-12-10T03:09:53.595Z,3.25
2018-12-10T03:10:56.970Z,1.57
2018-12-10T03:12:00.351Z,2.27
2018-12-10T03:13:03.719Z,1.90
2018-12-10T03:14:07.098Z,1.92
2018-12-10T03:15:10.609Z,1.92
2018-12-10T03:16:14.070Z,1.90
2018-12-10T03:17:17.488Z,1.70
2018-12-10T03:18:20.873Z,2.50
2018-12-10T03:19:24.324Z,2.25
2018-12-10T03:20:27.715Z,2.50
2018-12-10T03:21:31.092Z,1.85
2018-12-10T03:22:34.484Z,1.82
2018-12-10T03:23:38.122Z,2.12
2018-12-10T03:24:41.503Z,2.17
2018-12-10T03:25:44.943Z,2.00
2018-12-10T03:26:48.327Z,1.55
2018-12-10T03:27:51.707Z,1.90
2018-12-10T03:28:55.079Z,2.25
2018-12-10T03:29:58.467Z,2.02
2018-12-10T03:31:01.873Z,1.85
2018-12-10T03:32:05.259Z,2.52
2018-12-10T03:33:08.635Z,1.90
2018-12-10T03:34:12.009Z,1.65
2018-12-10T03:35:15.419Z,1.67
2018-12-10T03:36:18.795Z,2.00
2018-12-10T03:37:22.180Z,2.00
2018-12-10T03:38:26.320Z,2.50
2018-12-10T03:39:29.687Z,1.92
2018-12-10T03:40:33.073Z,2.42
2018-12-10T03:41:36.477Z,1.65
2018-12-10T03:42:39.855Z,1.67
2018-12-10T03:43:43.238Z,2.00
2018-12-10T03:44:46.663Z,1.82
2018-12-10T03:45:50.074Z,1.75
2018-12-10T03:46:53.478Z,1.90
2018-12-10T03:47:56.882Z,1.98
2018-12-10T03:49:00.283Z,1.85
2018-12-10T03:50:04.721Z,1.55
2018-12-10T03:51:08.123Z,2.10
2018-12-10T03:52:11.519Z,1.75
2018-12-10T03:53:14.886Z,1.55
2018-12-10T03:54:18.346Z,1.70
2018-12-10T03:55:21.751Z,1.67
2018-12-10T03:56:25.146Z,1.52
2018-12-10T03:57:28.530Z,1.90
2018-12-10T03:58:31.952Z,1.47
2018-12-10T03:59:35.344Z,2.27
2018-12-10T04:00:38.730Z,2.33
2018-12-10T04:01:42.113Z,1.80
2018-12-10T04:02:45.493Z,2.20
2018-12-10T04:03:48.898Z,1.98
2018-12-10T04:04:52.274Z,2.08
2018-12-10T04:05:55.655Z,1.72
2018-12-10T04:07:04.775Z,1.50
2018-12-10T04:08:08.310Z,2.27
2018-12-10T04:09:11.728Z,1.85
2018-12-10T04:10:15.125Z,1.47
2018-12-10T04:11:18.539Z,1.62
2018-12-10T04:12:21.934Z,1.65
2018-12-10T04:13:25.331Z,1.40
2018-12-10T04:14:28.717Z,1.25
2018-12-10T04:15:32.113Z,1.10
2018-12-10T04:16:35.534Z,1.32
2018-12-10T04:17:38.917Z,1.10
2018-12-10T04:18:42.314Z,1.52
2018-12-10T04:19:45.725Z,1.50
2018-12-10T04:20:49.242Z,1.02
2018-12-10T04:21:52.698Z,0.90
2018-12-10T04:22:56.078Z,1.17
2018-12-10T04:23:59.511Z,1.25
2018-12-10T04:25:02.885Z,0.98
2018-12-10T04:26:06.317Z,1.00
2018-12-10T04:27:09.693Z,1.22
2018-12-10T04:28:15.794Z,1.00
2018-12-10T04:29:19.194Z,1.20
2018-12-10T04:30:22.567Z,1.37
2018-12-10T04:31:25.978Z,0.98
2018-12-10T04:32:29.373Z,1.62
2018-12-10T04:33:32.750Z,0.82
2018-12-10T04:34:36.173Z,1.52
2018-12-10T04:35:39.582Z,1.80
2018-12-10T04:36:42.975Z,1.10
2018-12-10T04:37:46.356Z,1.15
2018-12-10T04:38:49.748Z,1.32
2018-12-10T04:39:53.134Z,1.12
2018-12-10T04:40:56.519Z,1.40
2018-12-10T04:41:59.918Z,1.30
2018-12-10T04:43:03.296Z,1.62
2018-12-10T04:44:06.686Z,1.17
2018-12-10T04:45:10.200Z,1.30
2018-12-10T04:46:13.579Z,1.10
2018-12-10T04:47:17.262Z,1.15
2018-12-10T04:48:20.663Z,1.17
2018-12-10T04:49:24.062Z,1.12
2018-12-10T04:50:27.459Z,1.30
2018-12-10T04:51:30.874Z,1.10
2018-12-10T04:52:34.293Z,0.82
2018-12-10T04:53:37.683Z,1.20
2018-12-10T04:54:41.066Z,1.20
2018-12-10T04:55:44.463Z,1.20
2018-12-10T04:56:47.878Z,1.02
2018-12-10T04:57:51.330Z,1.32
2018-12-10T04:58:54.739Z,1.55
2018-12-10T04:59:58.122Z,1.32
2018-12-10T05:01:01.547Z,1.00
2018-12-10T05:02:05.134Z,1.22
2018-12-10T05:03:09.524Z,1.65
2018-12-10T05:04:12.907Z,1.10
2018-12-10T05:05:16.282Z,0.93
2018-12-10T05:06:19.669Z,1.25
2018-12-10T05:07:23.078Z,1.32
2018-12-10T05:08:26.446Z,1.22
2018-12-10T05:09:29.830Z,1.37
2018-12-10T05:10:33.285Z,1.17
2018-12-10T05:11:36.661Z,1.30
2018-12-10T05:12:40.050Z,1.40
2018-12-10T05:13:43.445Z,1.40
2018-12-10T05:14:46.832Z,1.25
2018-12-10T05:15:50.242Z,1.17
2018-12-10T05:16:53.691Z,1.42
2018-12-10T05:17:57.089Z,1.22
2018-12-10T05:19:00.489Z,1.10
2018-12-10T05:20:03.894Z,1.20
2018-12-10T05:21:07.278Z,1.10
2018-12-10T05:22:10.698Z,1.25
2018-12-10T05:23:14.077Z,1.30
2018-12-10T05:24:17.439Z,0.90
2018-12-10T05:25:20.820Z,1.05
2018-12-10T05:26:24.207Z,0.98
2018-12-10T05:27:27.606Z,0.90
2018-12-10T05:28:31.049Z,1.27
2018-12-10T05:29:34.487Z,1.60
2018-12-10T05:30:37.859Z,0.98
2018-12-10T05:31:41.237Z,1.30
2018-12-10T05:32:44.629Z,1.35
2018-12-10T05:33:48.010Z,0.98
2018-12-10T05:34:51.399Z,1.40
2018-12-10T05:35:54.786Z,1.17
2018-12-10T05:36:58.166Z,1.30
2018-12-10T05:38:01.555Z,1.40
2018-12-10T05:39:06.474Z,1.32
2018-12-10T05:40:09.858Z,1.42
2018-12-10T05:41:13.250Z,1.00
2018-12-10T05:42:16.642Z,1.07
2018-12-10T05:43:20.022Z,1.10
2018-12-10T05:44:23.415Z,1.70
2018-12-10T05:45:26.822Z,1.47
2018-12-10T05:46:30.202Z,1.40
2018-12-10T05:47:33.642Z,1.40
2018-12-10T05:48:37.015Z,1.50
2018-12-10T05:49:40.408Z,1.98
2018-12-10T05:50:43.767Z,1.60
2018-12-10T05:51:47.161Z,1.45
2018-12-10T05:52:50.681Z,1.55
2018-12-10T05:53:54.239Z,1.90
2018-12-10T05:54:57.622Z,1.57
2018-12-10T05:56:00.995Z,1.85
2018-12-10T05:57:04.470Z,1.60
2018-12-10T05:58:07.874Z,1.87
2018-12-10T05:59:11.282Z,1.90
2018-12-10T06:00:14.665Z,1.85
2018-12-10T06:01:18.034Z,1.85
2018-12-10T06:02:21.427Z,1.92
2018-12-10T06:03:24.811Z,1.70
2018-12-10T06:04:28.405Z,2.40
2018-12-10T06:05:31.782Z,2.10
2018-12-10T06:06:35.167Z,1.72
2018-12-10T06:07:38.549Z,2.12
2018-12-10T06:08:41.942Z,1.82
2018-12-10T06:09:45.328Z,2.17
2018-12-10T06:10:48.705Z,1.95
2018-12-10T06:11:52.082Z,2.45
2018-12-10T06:12:55.471Z,2.02
2018-12-10T06:13:58.873Z,2.05
2018-12-10T06:15:02.363Z,1.90
2018-12-10T06:16:05.742Z,2.37
2018-12-10T06:17:09.130Z,1.98
2018-12-10T06:18:12.536Z,1.57
2018-12-10T06:19:15.902Z,2.15
2018-12-10T06:20:19.260Z,2.12
2018-12-10T06:21:22.618Z,2.15
2018-12-10T06:22:25.975Z,2.12
2018-12-10T06:23:29.383Z,2.60
2018-12-10T06:24:32.765Z,2.72
2018-12-10T06:25:36.529Z,2.90
2018-12-10T06:26:39.911Z,3.60
2018-12-10T06:27:43.318Z,3.00
2018-12-10T06:28:46.674Z,3.30
2018-12-10T06:29:50.050Z,3.40
2018-12-10T06:30:53.414Z,3.00
2018-12-10T06:31:56.790Z,2.72
2018-12-10T06:33:00.206Z,3.08
2018-12-10T06:34:03.582Z,3.98
2018-12-10T06:35:06.959Z,3.42
2018-12-10T06:36:10.395Z,3.72
2018-12-10T06:37:13.770Z,3.60
2018-12-10T06:38:17.169Z,3.95
2018-12-10T06:39:20.762Z,3.80
2018-12-10T06:40:24.139Z,3.62
2018-12-10T06:41:27.522Z,4.00
2018-12-10T06:42:30.904Z,4.55
2018-12-10T06:43:34.294Z,3.67
2018-12-10T06:44:37.661Z,4.05
2018-12-10T06:45:41.045Z,3.77
2018-12-10T06:46:44.426Z,3.60
2018-12-10T06:47:47.832Z,3.52
2018-12-10T06:48:51.530Z,3.75
2018-12-10T06:49:54.902Z,4.33
2018-12-10T06:50:58.274Z,4.05
2018-12-10T06:52:01.664Z,4.53
2018-12-10T06:53:05.250Z,4.35
2018-12-10T06:54:08.655Z,3.62
2018-12-10T06:55:12.060Z,4.83
2018-12-10T06:56:15.441Z,3.35
2018-12-10T06:57:18.817Z,4.50
2018-12-10T06:58:22.226Z,4.80
2018-12-10T06:59:25.623Z,4.47
2018-12-10T07:00:28.998Z,4.25
2018-12-10T07:01:32.398Z,4.92
2018-12-10T07:02:35.881Z,4.62
2018-12-10T07:03:39.282Z,4.30
2018-12-10T07:04:42.686Z,4.12
2018-12-10T07:05:46.085Z,4.22
2018-12-10T07:06:49.540Z,4.28
2018-12-10T07:07:53.626Z,3.87
2018-12-10T07:08:57.010Z,5.08
2018-12-10T07:10:00.410Z,4.42
2018-12-10T07:11:03.805Z,3.95
2018-12-10T07:12:07.186Z,4.10
2018-12-10T07:13:12.061Z,4.42
2018-12-10T07:14:15.450Z,4.58
2018-12-10T07:15:18.856Z,4.20
2018-12-10T07:16:22.264Z,3.92
2018-12-10T07:17:25.710Z,4.10
2018-12-10T07:18:31.430Z,3.60
2018-12-10T07:19:34.834Z,4.10
2018-12-10T07:20:38.254Z,4.08
2018-12-10T07:21:41.785Z,4.05
2018-12-10T07:22:45.171Z,4.50
2018-12-10T07:23:48.587Z,4.30
2018-12-10T07:24:51.980Z,4.05
2018-12-10T07:25:55.376Z,4.50
2018-12-10T07:26:58.746Z,4.10
2018-12-10T07:28:02.139Z,4.42
2018-12-10T07:29:05.562Z,4.35
2018-12-10T07:30:09.903Z,3.85
2018-12-10T07:31:13.309Z,3.60
2018-12-10T07:32:16.694Z,4.25
2018-12-10T07:33:25.672Z,3.70
2018-12-10T07:34:31.409Z,3.58
2018-12-10T07:35:37.450Z,3.22
2018-12-10T07:36:41.064Z,3.62
2018-12-10T07:37:44.488Z,3.50
2018-12-10T07:38:47.900Z,3.55
2018-12-10T07:39:51.303Z,4.03
2018-12-10T07:40:54.755Z,3.80
2018-12-10T07:41:58.233Z,4.10
2018-12-10T07:43:01.628Z,4.08
2018-12-10T07:44:05.009Z,4.00
2018-12-10T07:45:08.427Z,3.70
2018-12-10T07:46:15.353Z,3.58
2018-12-10T07:47:18.949Z,3.50
2018-12-10T07:48:22.327Z,4.03
2018-12-10T07:49:25.717Z,4.92
2018-12-10T07:50:29.148Z,3.27
2018-12-10T07:51:32.545Z,3.60
2018-12-10T07:52:35.930Z,3.25
2018-12-10T07:53:39.321Z,3.40
2018-12-10T07:54:42.742Z,3.20
2018-12-10T07:55:46.145Z,3.62
2018-12-10T07:56:49.535Z,3.65
2018-12-10T07:57:54.354Z,3.08
2018-12-10T07:58:57.746Z,3.37
2018-12-10T08:00:01.135Z,3.25
2018-12-10T08:01:04.551Z,2.95
2018-12-10T08:02:07.964Z,3.42
2018-12-10T08:03:11.358Z,3.70
2018-12-10T08:04:14.766Z,2.83
2018-12-10T08:05:18.143Z,3.30
2018-12-10T08:06:21.564Z,3.75
2018-12-10T08:07:24.970Z,3.30
2018-12-10T08:08:28.354Z,3.17
2018-12-10T08:09:31.738Z,2.52
2018-12-10T08:10:35.130Z,2.40
2018-12-10T08:11:38.546Z,3.00
2018-12-10T08:12:41.942Z,2.72
2018-12-10T08:13:45.382Z,3.10
2018-12-10T08:14:48.859Z,3.12
2018-12-10T08:15:52.235Z,3.10
2018-12-10T08:16:55.656Z,2.87
2018-12-10T08:17:59.069Z,2.45
2018-12-10T08:19:02.462Z,2.52
2018-12-10T08:20:05.964Z,2.10
2018-12-10T08:21:09.504Z,2.50
2018-12-10T08:22:12.928Z,2.52
2018-12-10T08:23:16.299Z,2.25
2018-12-10T08:24:20.054Z,2.60
2018-12-10T08:25:24.102Z,2.60
2018-12-10T08:26:27.483Z,2.33
2018-12-10T08:27:30.940Z,2.45
2018-12-10T08:28:34.548Z,2.30
2018-12-10T08:29:37.969Z,2.37
2018-12-10T08:30:41.371Z,2.00
2018-12-10T08:31:44.890Z,2.10
2018-12-10T08:32:48.299Z,2.55
2018-12-10T08:33:51.895Z,2.60
2018-12-10T08:34:55.278Z,1.98
2018-12-10T08:35:58.674Z,2.52
2018-12-10T08:37:02.086Z,1.67
2018-12-10T08:38:05.515Z,2.33
2018-12-10T08:39:08.918Z,2.05
2018-12-10T08:40:12.285Z,2.25
2018-12-10T08:41:15.657Z,2.10
2018-12-10T08:42:19.050Z,2.17
2018-12-10T08:43:22.453Z,2.10
2018-12-10T08:44:25.822Z,2.17
2018-12-10T08:45:29.202Z,1.85
2018-12-10T08:46:32.674Z,1.87
2018-12-10T08:47:36.036Z,2.15
2018-12-10T08:48:39.455Z,1.87
2018-12-10T08:49:42.847Z,1.72
2018-12-10T08:50:46.260Z,2.00
2018-12-10T08:51:49.659Z,2.60
2018-12-10T08:52:53.089Z,2.20
2018-12-10T08:53:56.522Z,1.95
2018-12-10T08:55:00.128Z,1.87
2018-12-10T08:56:03.518Z,2.30
2018-12-10T08:57:07.053Z,2.05
2018-12-10T08:58:10.672Z,2.30
2018-12-10T08:59:14.070Z,2.12
2018-12-10T09:00:17.529Z,1.50
2018-12-10T09:01:20.940Z,2.02
2018-12-10T09:02:24.348Z,2.02
2018-12-10T09:03:27.818Z,2.08
2018-12-10T09:04:31.247Z,1.90
2018-12-10T09:05:34.631Z,2.30
2018-12-10T09:06:38.028Z,2.30
2018-12-10T09:07:41.456Z,1.70
2018-12-10T09:08:44.934Z,2.10
2018-12-10T09:09:48.377Z,2.17
2018-12-10T09:10:51.775Z,2.17
2018-12-10T09:11:55.164Z,2.12
2018-12-10T09:12:58.558Z,2.40
2018-12-10T09:14:02.023Z,2.30
2018-12-10T09:15:06.207Z,1.90
2018-12-10T09:16:09.606Z,2.08
2018-12-10T09:17:12.986Z,2.12
2018-12-10T09:18:16.408Z,2.20
2018-12-10T09:19:19.787Z,2.12
2018-12-10T09:20:23.219Z,2.15
2018-12-10T09:21:26.595Z,2.08
2018-12-10T09:22:29.981Z,2.15
2018-12-10T09:23:33.363Z,1.90
2018-12-10T09:24:36.754Z,1.90
2018-12-10T09:25:40.195Z,2.12
2018-12-10T09:26:43.587Z,1.98
2018-12-10T09:27:46.970Z,2.08
2018-12-10T09:28:50.347Z,2.45
2018-12-10T09:29:53.734Z,2.30
2018-12-10T09:30:57.143Z,2.25
2018-12-10T09:32:00.522Z,2.27
2018-12-10T09:33:03.907Z,2.52
2018-12-10T09:34:07.297Z,2.87
2018-12-10T09:35:10.675Z,2.58
2018-12-10T09:36:14.118Z,3.30
2018-12-10T09:37:17.507Z,2.67
2018-12-10T09:38:20.905Z,2.60
2018-12-10T09:39:24.271Z,3.05
2018-12-10T09:40:27.671Z,3.45
2018-12-10T09:41:31.118Z,7.80
2018-12-10T09:42:34.531Z,7.78
2018-12-10T09:43:37.912Z,3.10
2018-12-10T09:44:41.303Z,2.95
2018-12-10T09:45:44.709Z,2.85
2018-12-10T09:46:48.116Z,3.02
2018-12-10T09:47:51.593Z,3.20
2018-12-10T09:48:54.978Z,3.30
2018-12-10T09:49:58.374Z,3.83
2018-12-10T09:51:01.756Z,3.27
2018-12-10T09:52:05.146Z,3.42
2018-12-10T09:53:08.637Z,3.85
2018-12-10T09:54:12.027Z,4.03
2018-12-10T09:55:15.454Z,3.90
2018-12-10T09:56:18.858Z,4.08
2018-12-10T09:57:22.275Z,5.20
2018-12-10T09:58:25.690Z,4.70
2018-12-10T09:59:29.086Z,4.87
2018-12-10T10:00:32.466Z,5.05
2018-12-10T10:01:35.857Z,5.03
2018-12-10T10:02:39.270Z,5.97
2018-12-10T10:03:42.662Z,4.85
2018-12-10T10:04:46.078Z,6.45
2018-12-10T10:05:49.464Z,5.15
2018-12-10T10:06:52.854Z,5.10
2018-12-10T10:07:56.246Z,5.55
2018-12-10T10:08:59.638Z,5.97
2018-12-10T10:10:03.062Z,5.15
2018-12-10T10:11:06.436Z,5.20
2018-12-10T10:12:09.813Z,5.92
2018-12-10T10:13:13.232Z,4.65
2018-12-10T10:14:16.630Z,5.83
2018-12-10T10:15:19.998Z,5.33
2018-12-10T10:16:23.375Z,5.40
2018-12-10T10:17:26.758Z,5.10
2018-12-10T10:18:30.168Z,5.22
2018-12-10T10:19:33.620Z,4.65
2018-12-10T10:20:37.009Z,4.00
2018-12-10T10:21:40.418Z,4.05
2018-12-10T10:22:43.802Z,3.77
2018-12-10T10:23:47.187Z,4.10
2018-12-10T10:24:50.578Z,3.80
2018-12-10T10:25:53.963Z,3.62
2018-12-10T10:26:57.336Z,3.55
2018-12-10T10:28:00.742Z,2.77
2018-12-10T10:29:04.186Z,3.33
2018-12-10T10:30:07.575Z,2.40
2018-12-10T10:31:10.986Z,3.02
2018-12-10T10:32:14.365Z,2.83
2018-12-10T10:33:17.744Z,2.85
2018-12-10T10:34:21.143Z,3.02
2018-12-10T10:35:24.527Z,2.90
2018-12-10T10:36:27.898Z,2.80
2018-12-10T10:37:31.284Z,2.70
2018-12-10T10:38:34.687Z,2.87
2018-12-10T10:39:38.242Z,3.02
2018-12-10T10:40:41.634Z,3.85
2018-12-10T10:41:45.080Z,2.80
2018-12-10T10:42:48.464Z,3.35
2018-12-10T10:43:51.855Z,2.80
2018-12-10T10:44:55.336Z,2.92
2018-12-10T10:45:58.719Z,2.62
2018-12-10T10:47:02.090Z,2.87
2018-12-10T17:29:50.948Z,2.00
2018-12-10T17:30:54.346Z,1.90
2018-12-10T17:32:00.878Z,2.40
2018-12-10T17:33:04.245Z,2.00
2018-12-10T17:34:12.202Z,2.10
2018-12-10T17:35:16.471Z,2.10
2018-12-10T17:36:19.866Z,2.05
2018-12-10T17:37:23.233Z,1.80
2018-12-10T17:38:26.630Z,2.30
2018-12-10T17:39:30.648Z,1.98
2018-12-10T17:40:34.584Z,2.02
2018-12-10T17:41:39.892Z,1.90
2018-12-10T17:42:43.435Z,2.05
2018-12-10T17:43:46.815Z,2.02
2018-12-10T17:44:50.189Z,2.30
2018-12-10T17:45:53.597Z,2.37
2018-12-10T17:46:57.961Z,2.02
2018-12-10T17:48:03.555Z,1.92
2018-12-10T17:49:07.812Z,2.15
2018-12-10T17:50:12.339Z,2.37
2018-12-10T17:51:16.510Z,2.40
2018-12-10T17:52:19.889Z,2.62
2018-12-10T17:53:23.319Z,2.02
2018-12-10T17:54:27.234Z,2.77
2018-12-10T17:55:30.627Z,2.62
2018-12-10T17:56:34.127Z,2.60
2018-12-10T17:57:37.504Z,2.15
2018-12-10T17:58:41.015Z,3.05
2018-12-10T17:59:44.394Z,2.58
2018-12-10T18:00:47.779Z,2.50
2018-12-10T18:01:51.147Z,2.27
2018-12-10T18:02:54.559Z,2.37
2018-12-10T18:03:57.935Z,2.30
2018-12-10T18:05:01.307Z,2.85
2018-12-10T18:06:04.696Z,2.70
2018-12-10T18:07:08.061Z,2.77
2018-12-10T18:08:11.450Z,2.50
2018-12-10T18:09:14.822Z,2.60
2018-12-10T18:10:18.198Z,2.15
2018-12-10T18:11:21.658Z,2.70
2018-12-10T18:12:25.042Z,3.00
2018-12-10T18:13:28.432Z,2.37
2018-12-10T18:14:31.803Z,2.80
2018-12-10T18:15:35.318Z,2.60
2018-12-10T18:16:38.718Z,2.95
2018-12-10T18:17:42.098Z,3.55
2018-12-10T18:18:45.499Z,2.67
2018-12-10T18:19:48.886Z,2.70
2018-12-10T18:20:52.271Z,2.92
2018-12-10T18:21:55.651Z,2.60
2018-12-10T18:22:59.070Z,2.65
2018-12-10T18:24:02.449Z,2.65
2018-12-10T18:25:06.006Z,2.37
2018-12-10T18:26:09.670Z,2.55
2018-12-10T18:27:13.271Z,3.05
2018-12-10T18:28:16.654Z,2.60
2018-12-10T18:29:20.038Z,2.98
2018-12-10T18:30:23.463Z,2.30
2018-12-10T18:31:26.826Z,2.55
2018-12-10T18:32:30.230Z,2.33
2018-12-10T18:33:33.824Z,2.95
2018-12-10T18:34:37.201Z,2.60
2018-12-10T18:35:40.579Z,3.05
2018-12-10T18:36:44.081Z,2.80
2018-12-10T18:37:47.479Z,2.90
2018-12-10T18:38:51.060Z,2.70
2018-12-10T18:39:54.444Z,3.45
2018-12-10T18:40:57.814Z,3.12
2018-12-10T18:42:01.286Z,2.25
2018-12-10T18:43:04.655Z,3.12
2018-12-10T18:44:08.046Z,2.12
2018-12-10T18:45:14.329Z,2.95
2018-12-10T18:46:17.719Z,2.37
2018-12-10T18:47:21.097Z,2.33
2018-12-10T18:48:24.483Z,3.10
2018-12-10T18:49:27.858Z,2.83
2018-12-10T18:50:31.282Z,3.08
2018-12-10T18:51:34.829Z,2.37
2018-12-10T18:52:38.217Z,2.37
2018-12-10T18:53:41.633Z,2.15
2018-12-10T18:54:45.080Z,2.60
2018-12-10T18:55:48.462Z,3.15
2018-12-10T18:56:51.995Z,2.25
2018-12-10T18:57:55.355Z,2.20
2018-12-10T18:58:58.760Z,2.52
2018-12-10T19:00:02.446Z,2.10
2018-12-10T19:01:05.833Z,2.95
2018-12-10T19:02:09.218Z,2.40
2018-12-10T19:03:12.596Z,2.37
2018-12-10T19:04:15.996Z,2.52
2018-12-10T19:05:21.384Z,2.72
2018-12-10T19:06:24.802Z,2.22
2018-12-10T19:07:28.197Z,2.40
2018-12-10T19:08:31.585Z,2.58
2018-12-10T19:09:34.971Z,2.27
2018-12-10T19:10:38.361Z,2.42
2018-12-10T19:11:41.750Z,2.40
2018-12-10T19:12:45.250Z,2.67
2018-12-10T19:13:50.189Z,2.17
2018-12-10T19:14:54.275Z,2.50
2018-12-10T19:15:57.899Z,2.50
2018-12-10T19:17:01.311Z,2.95
2018-12-10T19:18:04.779Z,2.98
2018-12-10T19:19:08.159Z,2.42
2018-12-10T19:20:13.687Z,3.22
2018-12-10T19:21:16.979Z,2.40
2018-12-10T19:22:20.396Z,2.70
2018-12-10T19:23:23.849Z,2.40
2018-12-10T19:24:27.275Z,2.67
2018-12-10T19:25:30.822Z,2.55
2018-12-10T19:26:34.213Z,3.08
2018-12-10T19:27:37.599Z,2.75
2018-12-10T19:28:41.018Z,3.47
2018-12-10T19:29:44.418Z,3.30
2018-12-10T19:30:47.795Z,3.35
2018-12-10T19:31:51.219Z,2.85
2018-12-10T19:32:54.633Z,2.55
2018-12-10T19:34:03.461Z,2.98
2018-12-10T19:35:03.458Z,3.70
2018-12-10T19:36:06.946Z,4.72
2018-12-10T19:37:10.318Z,2.62
2018-12-10T19:38:13.723Z,3.02
2018-12-10T19:39:17.127Z,2.60
2018-12-10T19:40:20.526Z,3.37
2018-12-10T19:41:24.031Z,3.37
2018-12-10T19:42:27.397Z,3.25
2018-12-10T19:43:30.785Z,2.70
2018-12-10T19:44:34.187Z,3.42
2018-12-10T19:45:37.578Z,3.22
2018-12-10T19:46:40.965Z,2.67
2018-12-10T19:47:44.345Z,3.62
2018-12-10T19:48:47.710Z,3.25
2018-12-10T19:49:51.117Z,2.30
2018-12-10T19:50:54.517Z,3.00
2018-12-10T19:51:57.919Z,3.25
2018-12-10T19:53:01.316Z,3.10
2018-12-10T19:54:04.723Z,3.08
2018-12-10T19:55:08.090Z,2.35
2018-12-10T19:56:11.470Z,3.15
2018-12-10T19:57:14.851Z,2.20
2018-12-10T19:58:18.240Z,2.67
2018-12-10T19:59:21.625Z,2.52
2018-12-10T20:00:25.008Z,2.80
2018-12-10T20:01:28.407Z,2.75
2018-12-10T20:02:31.798Z,2.72
2018-12-10T20:03:35.287Z,2.72
2018-12-10T20:04:38.706Z,3.67
2018-12-10T20:05:47.588Z,2.77
2018-12-10T20:06:57.358Z,2.60
2018-12-10T20:08:00.749Z,2.52
2018-12-10T20:09:07.033Z,2.37
2018-12-10T20:10:10.808Z,2.83
2018-12-10T20:11:14.176Z,3.02
2018-12-10T20:12:17.601Z,2.95
2018-12-10T20:13:20.975Z,2.90
2018-12-10T20:14:24.690Z,3.50
2018-12-10T20:15:28.057Z,2.85
2018-12-10T20:16:31.475Z,2.72
2018-12-10T20:17:34.864Z,2.62
2018-12-10T20:18:38.234Z,3.12
2018-12-10T20:19:41.618Z,2.95
2018-12-10T20:20:44.999Z,2.30
2018-12-10T20:21:48.381Z,3.20
2018-12-10T20:22:51.939Z,2.58
2018-12-10T20:23:55.487Z,2.90
2018-12-10T20:24:58.858Z,2.33
2018-12-10T20:26:02.243Z,2.92
2018-12-10T20:27:05.634Z,3.20
2018-12-10T20:28:09.122Z,2.72
2018-12-10T20:29:13.865Z,2.92
2018-12-10T20:30:17.281Z,2.62
2018-12-10T20:31:21.799Z,3.10
2018-12-10T20:32:26.147Z,2.75
2018-12-10T20:33:30.847Z,2.90
2018-12-10T20:34:35.705Z,3.30
2018-12-10T20:35:39.281Z,2.70
2018-12-10T20:36:43.532Z,3.52
2018-12-10T20:37:47.567Z,3.00
2018-12-10T20:38:51.020Z,3.33
2018-12-10T20:39:55.052Z,3.00
2018-12-10T20:40:58.443Z,2.67
2018-12-10T20:42:01.830Z,3.08
2018-12-10T20:43:05.225Z,3.37
2018-12-10T20:44:08.610Z,3.42
2018-12-10T20:45:12.020Z,3.42
2018-12-10T20:46:15.626Z,3.65
2018-12-10T20:47:19.038Z,3.08